Terminal Aerodrome Forecast
Issued by NWS Corpus Christi, TX

Home | Current Version | Previous Version | Text Only | Print | Product List | Glossary On
Versions: 1 2 3 4 5 6 7 8 9 10 11 12 13 14 15 16 17 18 19 20 21 22 23 24 25 26 27 28 29 30
000
FTUS44 KCRP 182336
TAFCRP
TAF
KCRP 182336Z 1900/1924 14010G15KT P6SM BKN250
     FM190300 15008KT P6SM SCT020 BKN250
     FM190800 17006KT P6SM SCT009 BKN020
      TEMPO 1910/1913 BKN009 OVC020
     FM191500 18009KT P6SM BKN025 OVC200
     FM191800 16012KT P6SM SCT035 BKN200
     FM192000 13017G25KT P6SM FEW040 BKN200=

USA.gov is the U.S. government's official web portal to all federal, state and local government web resources and services.